Spring Nelson — VRIT3 — position and weather

sailwx.info

Track history (hours):
 
Tides and Currents Weather Stations Pressure Air Temp Water Temp Dewpoint Dewpoint Depression Visibility Wind Speed Wind Dir Waves Ship Positions

Spring Nelson

Last reported at 2018-Aug-14 13:08 UTC. Time now 2018-Aug-14 13:48 UTC.
Position S 07°12' E 112°44'.

Length 112 m; draft 5.7 m.

Type: Cargo ship. MMSI: 477950800.

Date/timePositionNaut miles runAvg speedWind from/ knotsBaromVisibWave heightAir tempDewpointWater temp
2018-Aug-14 13:08S 07°12' E 112°44'0 0.0
2018-Aug-14 11:14S 07°12' E 112°44'0 0.0
2018-Aug-13 17:32S 07°12' E 112°44'0 0.0
2018-Aug-13 15:32S 07°12' E 112°44'0 0.0
2018-Aug-13 15:29S 07°12' E 112°44'0 0.0
2018-Aug-13 14:56S 07°12' E 112°44'0 0.0
2018-Aug-13 10:26S 07°12' E 112°44'0 0.0
2018-Aug-13 08:26S 07°12' E 112°44'0 0.0
2018-Aug-13 06:35S 07°12' E 112°44'0 0.0
2018-Aug-13 06:26S 07°12' E 112°44'0 0.0
2018-Aug-13 05:02S 07°12' E 112°44'0 0.0
2018-Aug-13 04:47S 07°12' E 112°44'0 0.0
2018-Aug-12 22:05S 07°12' E 112°44'0 0.0
2018-Aug-12 20:50S 07°12' E 112°44'0 0.0
2018-Aug-12 20:20S 07°12' E 112°44'0 0.0
2018-Aug-12 18:53S 07°12' E 112°44'0 0.0
2018-Aug-12 17:50S 07°12' E 112°44'0 0.0
2018-Aug-12 17:24S 07°12' E 112°44'1 1.8
2018-Aug-12 17:00S 07°12' E 112°43'4 7.8
2018-Aug-12 16:26S 07°08' E 112°40'510.0
2018-Aug-12 15:54S 07°03' E 112°40'511.2
2018-Aug-12 15:29S 06°59' E 112°42'611.5
2018-Aug-12 14:56S 06°53' E 112°44'4 8.0
2018-Aug-12 14:26S 06°50' E 112°46'1 0.1
2018-Aug-12 06:03S 06°50' E 112°47'0 0.0
2018-Aug-12 06:00S 06°50' E 112°47'0 0.0
2018-Aug-11 19:48S 06°50' E 112°47'0 0.0
2018-Aug-10 06:21S 06°50' E 112°47'0 0.1
2018-Aug-10 05:51S 06°50' E 112°47'0 0.0
2018-Aug-09 18:42S 06°50' E 112°47'0 0.0
2018-Aug-09 16:39S 06°50' E 112°47'0 0.0
2018-Aug-09 16:09S 06°50' E 112°47'0 0.0
2018-Aug-09 15:48S 06°50' E 112°47'0 0.1
2018-Aug-09 15:18S 06°50' E 112°47'0 0.1
2018-Aug-09 14:48S 06°50' E 112°47'0 0.0
2018-Aug-09 12:30S 06°50' E 112°47'0 0.0
2018-Aug-09 09:53S 06°50' E 112°47'2 3.1
2018-Aug-09 09:22S 06°48' E 112°46'610.1
2018-Aug-09 08:50S 06°44' E 112°43'  
Track history (hours):
 
Tides and Currents Weather Stations Pressure Air Temp Water Temp Dewpoint Dewpoint Depression Visibility Wind Speed Wind Dir Waves Ship Positions

Spring Nelson

Last reported at 2018-Aug-14 13:08 UTC. Time now 2018-Aug-14 13:48 UTC.
Position S 07°12' E 112°44'.

Length 112 m; draft 5.7 m.

Type: Cargo ship. MMSI: 477950800.

Date/timePositionNaut miles runAvg speedWind from/ knotsBaromVisibWave heightAir tempDewpointWater temp
2018-Aug-14 13:08S 07°12' E 112°44'0 0.0
2018-Aug-14 11:14S 07°12' E 112°44'0 0.0
2018-Aug-13 17:32S 07°12' E 112°44'0 0.0
2018-Aug-13 15:32S 07°12' E 112°44'0 0.0
2018-Aug-13 15:29S 07°12' E 112°44'0 0.0
2018-Aug-13 14:56S 07°12' E 112°44'0 0.0
2018-Aug-13 10:26S 07°12' E 112°44'0 0.0
2018-Aug-13 08:26S 07°12' E 112°44'0 0.0
2018-Aug-13 06:35S 07°12' E 112°44'0 0.0
2018-Aug-13 06:26S 07°12' E 112°44'0 0.0
2018-Aug-13 05:02S 07°12' E 112°44'0 0.0
2018-Aug-13 04:47S 07°12' E 112°44'0 0.0
2018-Aug-12 22:05S 07°12' E 112°44'0 0.0
2018-Aug-12 20:50S 07°12' E 112°44'0 0.0
2018-Aug-12 20:20S 07°12' E 112°44'0 0.0
2018-Aug-12 18:53S 07°12' E 112°44'0 0.0
2018-Aug-12 17:50S 07°12' E 112°44'0 0.0
2018-Aug-12 17:24S 07°12' E 112°44'1 1.8
2018-Aug-12 17:00S 07°12' E 112°43'4 7.8
2018-Aug-12 16:26S 07°08' E 112°40'510.0
2018-Aug-12 15:54S 07°03' E 112°40'511.2
2018-Aug-12 15:29S 06°59' E 112°42'611.5
2018-Aug-12 14:56S 06°53' E 112°44'4 8.0
2018-Aug-12 14:26S 06°50' E 112°46'1 0.1
2018-Aug-12 06:03S 06°50' E 112°47'0 0.0
2018-Aug-12 06:00S 06°50' E 112°47'0 0.0
2018-Aug-11 19:48S 06°50' E 112°47'0 0.0
2018-Aug-10 06:21S 06°50' E 112°47'0 0.1
2018-Aug-10 05:51S 06°50' E 112°47'0 0.0
2018-Aug-09 18:42S 06°50' E 112°47'0 0.0
2018-Aug-09 16:39S 06°50' E 112°47'0 0.0
2018-Aug-09 16:09S 06°50' E 112°47'0 0.0
2018-Aug-09 15:48S 06°50' E 112°47'0 0.1
2018-Aug-09 15:18S 06°50' E 112°47'0 0.1
2018-Aug-09 14:48S 06°50' E 112°47'0 0.0
2018-Aug-09 12:30S 06°50' E 112°47'0 0.0
2018-Aug-09 09:53S 06°50' E 112°47'2 3.1
2018-Aug-09 09:22S 06°48' E 112°46'610.1
2018-Aug-09 08:50S 06°44' E 112°43'  

Dump ship's entire track history